Time;durP1;ratioP1;P1;durP2;ratioP2;P2;SDS_P1;SDS_P2;PMS_P1;PMS_P2;Temp;Humidity;BMP_temperature;BMP_pressure;BME280_temperature;BME280_humidity;BME280_pressure;Samples;Min_cycle;Max_cycle;Signal;HPM_P1;HPM_P2
2023/12/08 00:01:49;;;;;;;29.80;18.60;;;4.60;99.90;;;;;;5018350;28;20607;-65
2023/12/08 00:04:15;;;;;;;30.90;18.70;;;4.60;99.90;;;;;;5024998;28;20283;-65
2023/12/08 00:06:40;;;;;;;34.30;19.40;;;4.60;99.90;;;;;;5021168;28;20233;-65
2023/12/08 00:09:06;;;;;;;30.33;17.67;;;4.60;99.90;;;;;;5023260;28;20200;-65
2023/12/08 00:11:31;;;;;;;31.13;19.13;;;4.60;99.90;;;;;;5019359;28;20181;-65
2023/12/08 00:13:57;;;;;;;32.43;19.80;;;4.60;99.90;;;;;;5022699;28;20213;-65
2023/12/08 00:16:22;;;;;;;29.27;18.27;;;4.60;99.90;;;;;;5026412;28;20215;-65
2023/12/08 00:18:48;;;;;;;30.77;18.53;;;4.60;99.90;;;;;;5015916;28;20651;-65
2023/12/08 00:21:13;;;;;;;28.30;18.67;;;4.60;99.90;;;;;;5013875;28;20634;-65
2023/12/08 00:23:39;;;;;;;28.30;17.73;;;4.60;99.90;;;;;;5017833;28;20200;-65
2023/12/08 00:26:05;;;;;;;33.77;19.00;;;4.70;99.90;;;;;;5017019;28;20654;-66
2023/12/08 00:28:30;;;;;;;34.70;18.30;;;4.70;99.90;;;;;;5016784;28;20188;-66
2023/12/08 00:30:56;;;;;;;29.53;17.37;;;4.70;99.90;;;;;;5012400;28;20717;-66
2023/12/08 00:33:22;;;;;;;25.20;16.70;;;4.70;99.90;;;;;;5017100;28;20606;-66
2023/12/08 00:35:50;;;;;;;28.50;16.77;;;4.80;99.90;;;;;;5014197;28;20212;-65
2023/12/08 00:38:15;;;;;;;31.33;18.00;;;4.80;99.90;;;;;;5016852;28;20185;-66
2023/12/08 00:40:41;;;;;;;31.70;18.23;;;4.80;99.90;;;;;;5012927;28;20473;-65
2023/12/08 00:43:07;;;;;;;31.80;19.50;;;4.70;99.90;;;;;;5020102;28;20216;-65
2023/12/08 00:45:32;;;;;;;32.10;19.00;;;4.70;99.90;;;;;;5020518;28;20685;-65
2023/12/08 00:47:58;;;;;;;31.90;19.00;;;4.70;99.90;;;;;;5016615;28;20275;-66
2023/12/08 00:50:23;;;;;;;31.60;18.33;;;4.70;99.90;;;;;;5014350;28;20222;-66
2023/12/08 00:52:49;;;;;;;31.53;18.30;;;4.70;99.90;;;;;;5016622;28;20261;-66
2023/12/08 00:55:15;;;;;;;29.77;17.60;;;4.70;99.90;;;;;;5016060;28;20284;-66
2023/12/08 00:57:40;;;;;;;33.67;19.27;;;4.80;99.90;;;;;;5013547;28;20181;-66
2023/12/08 01:00:06;;;;;;;34.80;19.40;;;4.80;99.90;;;;;;5018675;28;20200;-66
2023/12/08 01:02:32;;;;;;;34.73;19.27;;;4.80;99.90;;;;;;5015614;28;20255;-66
2023/12/08 01:04:57;;;;;;;37.57;20.53;;;4.80;99.90;;;;;;5015692;28;20487;-66
2023/12/08 01:07:23;;;;;;;34.60;19.53;;;4.70;99.90;;;;;;5017118;28;20196;-66
2023/12/08 01:09:49;;;;;;;35.67;20.57;;;4.60;99.90;;;;;;5012703;28;20214;-66
2023/12/08 01:12:14;;;;;;;31.40;20.67;;;4.50;99.90;;;;;;5011174;28;20189;-65
2023/12/08 01:14:40;;;;;;;34.83;19.20;;;4.60;99.90;;;;;;5015343;28;20215;-66
2023/12/08 01:17:05;;;;;;;36.07;19.00;;;4.60;99.90;;;;;;5008242;28;20689;-66
2023/12/08 01:19:31;;;;;;;35.70;19.23;;;4.70;99.90;;;;;;5013349;28;20199;-66
2023/12/08 01:21:56;;;;;;;36.87;20.70;;;4.60;99.90;;;;;;5011165;28;20189;-66
2023/12/08 01:24:22;;;;;;;35.40;19.60;;;4.60;99.90;;;;;;5016462;28;20201;-66
2023/12/08 01:26:48;;;;;;;31.50;19.13;;;4.70;99.90;;;;;;5016715;28;20185;-66
2023/12/08 01:29:13;;;;;;;36.80;22.57;;;4.60;99.90;;;;;;5014848;28;20184;-66
2023/12/08 01:31:39;;;;;;;38.63;18.80;;;4.60;99.90;;;;;;5014698;28;20173;-66
2023/12/08 01:34:04;;;;;;;32.40;18.70;;;4.60;99.90;;;;;;5018741;28;20218;-65
2023/12/08 01:36:30;;;;;;;32.83;19.73;;;4.60;99.90;;;;;;5017620;28;20554;-67
2023/12/08 01:38:55;;;;;;;37.60;20.83;;;4.60;99.90;;;;;;5017114;28;20173;-65
2023/12/08 01:41:21;;;;;;;38.20;21.57;;;4.60;99.90;;;;;;5017071;28;20177;-65
2023/12/08 01:43:47;;;;;;;36.27;20.87;;;4.70;99.90;;;;;;5019223;28;20276;-66
2023/12/08 01:46:15;;;;;;;36.13;21.43;;;4.60;99.90;;;;;;5019657;28;20184;-65
2023/12/08 01:48:42;;;;;;;34.60;19.60;;;4.50;99.90;;;;;;5021051;28;20177;-65
2023/12/08 01:51:11;;;;;;;42.67;20.50;;;4.40;99.90;;;;;;5021029;28;20461;-65
2023/12/08 01:53:38;;;;;;;32.37;18.83;;;4.40;99.90;;;;;;5015590;28;21317;-65
2023/12/08 01:56:04;;;;;;;38.60;20.83;;;4.40;99.90;;;;;;5021299;28;20459;-65
2023/12/08 01:58:29;;;;;;;34.07;18.93;;;4.40;99.90;;;;;;5019188;28;20407;-65
2023/12/08 02:00:57;;;;;;;40.57;20.57;;;4.30;99.90;;;;;;5018972;28;20431;-65
2023/12/08 02:03:25;;;;;;;37.63;21.53;;;4.20;99.90;;;;;;5021569;28;20686;-65
2023/12/08 02:05:50;;;;;;;44.07;21.07;;;4.20;99.90;;;;;;5016185;28;20412;-65
2023/12/08 02:08:17;;;;;;;41.27;21.67;;;4.20;99.90;;;;;;5018820;28;20443;-65
2023/12/08 02:10:43;;;;;;;39.83;21.60;;;4.20;99.90;;;;;;5019854;28;20181;-65
2023/12/08 02:13:11;;;;;;;42.27;22.17;;;4.20;99.90;;;;;;5021989;28;21651;-66
2023/12/08 02:15:37;;;;;;;41.40;21.00;;;4.20;99.90;;;;;;5016656;28;21374;-66
2023/12/08 02:18:03;;;;;;;41.90;22.17;;;4.20;99.90;;;;;;5015598;28;20424;-66
2023/12/08 02:20:29;;;;;;;41.63;21.57;;;4.10;99.90;;;;;;5017001;28;20181;-66
2023/12/08 02:22:55;;;;;;;37.60;20.03;;;4.20;99.90;;;;;;5020596;28;20443;-66
2023/12/08 02:25:20;;;;;;;35.83;20.03;;;4.20;99.90;;;;;;5016483;28;20431;-65
2023/12/08 02:27:46;;;;;;;39.07;21.30;;;4.10;99.90;;;;;;5012935;28;20217;-65
2023/12/08 02:30:12;;;;;;;43.60;21.40;;;4.10;99.90;;;;;;5015032;28;20193;-65
2023/12/08 02:32:58;;;;;;;38.40;21.27;;;4.00;99.90;;;;;;5018095;28;20722;-65
2023/12/08 02:35:27;;;;;;;36.90;19.93;;;4.10;99.90;;;;;;5018555;28;20455;-66
2023/12/08 02:37:56;;;;;;;43.03;20.80;;;4.10;99.90;;;;;;5018663;28;20428;-66
2023/12/08 02:40:21;;;;;;;42.60;21.03;;;4.10;99.90;;;;;;5020248;28;20522;-66
2023/12/08 02:42:47;;;;;;;41.27;22.77;;;4.00;99.90;;;;;;5017380;28;20462;-66
2023/12/08 02:45:12;;;;;;;40.17;21.43;;;4.10;99.90;;;;;;5021233;28;20301;-66
2023/12/08 02:47:38;;;;;;;42.17;20.17;;;4.00;99.90;;;;;;5015548;28;20266;-65
2023/12/08 02:50:04;;;;;;;40.80;19.93;;;4.10;99.90;;;;;;5016489;28;20188;-66
2023/12/08 02:52:29;;;;;;;44.03;23.40;;;4.20;99.90;;;;;;5020053;28;21370;-66
2023/12/08 02:54:55;;;;;;;40.47;22.07;;;4.30;99.90;;;;;;5013242;28;20498;-65
2023/12/08 02:57:20;;;;;;;41.60;22.40;;;4.30;99.90;;;;;;5018484;28;20663;-65
2023/12/08 02:59:46;;;;;;;41.70;23.60;;;4.30;99.90;;;;;;5022802;28;20513;-65
2023/12/08 03:02:12;;;;;;;42.17;21.50;;;4.40;99.90;;;;;;5023369;28;20181;-66
2023/12/08 03:04:37;;;;;;;39.03;22.30;;;4.50;99.90;;;;;;5014912;28;20716;-65
2023/12/08 03:07:03;;;;;;;40.00;20.40;;;4.50;99.90;;;;;;5015463;28;20219;-65
2023/12/08 03:09:28;;;;;;;39.27;20.77;;;4.60;99.90;;;;;;5021300;28;20185;-65
2023/12/08 03:11:54;;;;;;;34.40;20.07;;;4.50;99.90;;;;;;5015933;28;20187;-66
2023/12/08 03:14:19;;;;;;;37.90;19.70;;;4.50;99.90;;;;;;5015265;28;20209;-65
2023/12/08 03:16:49;;;;;;;37.07;20.03;;;4.60;99.90;;;;;;5017782;28;20196;-65
2023/12/08 03:19:15;;;;;;;43.73;21.20;;;4.50;99.90;;;;;;5017416;28;20186;-66
2023/12/08 03:21:41;;;;;;;34.37;20.37;;;4.40;99.90;;;;;;5017385;28;20427;-66
2023/12/08 03:24:06;;;;;;;41.73;20.73;;;4.20;99.90;;;;;;5016844;28;20493;-66
2023/12/08 03:26:32;;;;;;;36.40;18.97;;;4.30;99.90;;;;;;5012741;28;20184;-65
2023/12/08 03:28:58;;;;;;;37.97;19.90;;;4.40;99.90;;;;;;5015775;28;20189;-66
2023/12/08 03:31:25;;;;;;;33.90;18.90;;;4.40;99.90;;;;;;5015170;28;20466;-65
2023/12/08 03:33:50;;;;;;;31.43;17.80;;;4.50;99.90;;;;;;5016893;28;20201;-65
2023/12/08 03:36:16;;;;;;;34.37;20.00;;;4.50;99.90;;;;;;5020646;28;20482;-65
2023/12/08 03:38:42;;;;;;;34.80;20.70;;;4.50;99.90;;;;;;5019692;28;20255;-65
2023/12/08 03:41:07;;;;;;;34.53;20.60;;;4.60;99.90;;;;;;5014378;28;20192;-65
2023/12/08 03:43:33;;;;;;;33.70;18.83;;;4.60;99.90;;;;;;5019254;28;20256;-65
2023/12/08 03:45:58;;;;;;;30.77;18.30;;;4.60;99.90;;;;;;5021207;28;20184;-65
2023/12/08 03:48:24;;;;;;;34.23;18.93;;;4.60;99.90;;;;;;5020223;28;20231;-65
2023/12/08 03:50:49;;;;;;;31.87;18.07;;;4.60;99.90;;;;;;5013040;28;20196;-65
2023/12/08 03:53:15;;;;;;;32.40;17.87;;;4.60;99.90;;;;;;5019285;28;20240;-65
2023/12/08 03:55:40;;;;;;;31.13;18.13;;;4.50;99.90;;;;;;5018891;28;20204;-65
2023/12/08 03:58:06;;;;;;;33.33;18.27;;;4.50;99.90;;;;;;5017403;28;20181;-65
2023/12/08 04:00:31;;;;;;;37.10;19.90;;;4.40;99.90;;;;;;5021209;28;20227;-65
2023/12/08 04:02:57;;;;;;;35.60;19.33;;;4.50;99.90;;;;;;5019123;28;20200;-65
2023/12/08 04:05:22;;;;;;;32.70;18.00;;;4.60;99.90;;;;;;5020959;28;20662;-65
2023/12/08 04:07:48;;;;;;;37.10;19.60;;;4.70;99.90;;;;;;5012842;28;20212;-65
2023/12/08 04:10:14;;;;;;;33.70;20.67;;;4.60;99.90;;;;;;5017824;28;20208;-65
2023/12/08 04:12:39;;;;;;;37.47;20.33;;;4.60;99.90;;;;;;5018601;28;20191;-65
2023/12/08 04:15:05;;;;;;;39.07;20.03;;;4.60;99.90;;;;;;5019827;28;20200;-65
2023/12/08 04:17:31;;;;;;;37.77;19.20;;;4.70;99.90;;;;;;5018141;28;20223;-65
2023/12/08 04:19:56;;;;;;;40.23;20.63;;;4.70;99.90;;;;;;5019917;28;20924;-65
2023/12/08 04:22:22;;;;;;;36.83;19.97;;;4.80;99.90;;;;;;5019956;28;20651;-66
2023/12/08 04:24:47;;;;;;;37.07;20.77;;;4.80;99.90;;;;;;5016377;28;20222;-66
2023/12/08 04:27:13;;;;;;;35.03;19.30;;;4.90;99.90;;;;;;5014145;28;20181;-66
2023/12/08 04:29:39;;;;;;;32.60;17.40;;;4.90;99.90;;;;;;5015237;28;20305;-66
2023/12/08 04:32:04;;;;;;;36.90;18.00;;;4.90;99.90;;;;;;5019238;28;20274;-66
2023/12/08 04:34:30;;;;;;;32.17;18.20;;;4.90;99.90;;;;;;5014773;28;20208;-66
2023/12/08 04:36:55;;;;;;;33.80;19.43;;;4.90;99.90;;;;;;5013161;28;20181;-66
2023/12/08 04:39:21;;;;;;;35.60;19.30;;;4.90;99.90;;;;;;5018673;28;20192;-66
2023/12/08 04:41:47;;;;;;;31.00;18.37;;;4.90;99.90;;;;;;5016421;28;20183;-66
2023/12/08 04:44:13;;;;;;;32.97;18.00;;;5.00;99.90;;;;;;5013010;28;20215;-66
2023/12/08 04:46:38;;;;;;;33.03;19.80;;;5.00;99.90;;;;;;5018026;28;20819;-66
2023/12/08 04:49:04;;;;;;;30.93;18.97;;;5.00;99.90;;;;;;5015653;28;20235;-66
2023/12/08 04:51:29;;;;;;;37.10;18.87;;;5.00;99.90;;;;;;5015489;28;20442;-66
2023/12/08 04:53:55;;;;;;;34.23;19.37;;;5.00;99.90;;;;;;5012961;28;20204;-66
2023/12/08 04:56:20;;;;;;;36.37;18.73;;;5.00;99.90;;;;;;5018301;28;20334;-66
2023/12/08 04:58:47;;;;;;;33.93;18.00;;;5.00;99.90;;;;;;5012892;28;20682;-66
2023/12/08 05:01:14;;;;;;;31.97;17.60;;;5.00;99.90;;;;;;5010923;28;20339;-66
2023/12/08 05:03:40;;;;;;;32.57;17.50;;;5.00;99.90;;;;;;5015792;28;20500;-66
2023/12/08 05:06:07;;;;;;;29.30;16.23;;;5.10;99.90;;;;;;5012801;28;20438;-66
2023/12/08 05:08:32;;;;;;;28.40;18.07;;;5.10;99.90;;;;;;5020390;28;20489;-66
2023/12/08 05:10:58;;;;;;;27.10;16.53;;;5.10;99.90;;;;;;5019286;28;20937;-66
2023/12/08 05:13:23;;;;;;;26.43;15.40;;;5.10;99.90;;;;;;5017064;28;20711;-70
2023/12/08 05:15:49;;;;;;;30.57;16.20;;;5.20;99.90;;;;;;5017333;28;20223;-66
2023/12/08 05:18:14;;;;;;;27.30;16.63;;;5.20;99.90;;;;;;5020768;28;20256;-66
2023/12/08 05:20:40;;;;;;;24.10;15.23;;;5.20;99.90;;;;;;5022289;28;21024;-66
2023/12/08 05:23:06;;;;;;;22.40;14.27;;;5.20;99.90;;;;;;5024181;28;20200;-66
2023/12/08 05:25:31;;;;;;;23.80;15.90;;;5.30;99.90;;;;;;5022023;28;20234;-66
2023/12/08 05:27:57;;;;;;;22.00;13.77;;;5.30;99.90;;;;;;5019683;28;20189;-66
2023/12/08 05:30:22;;;;;;;23.53;15.07;;;5.30;99.90;;;;;;5023298;28;20190;-66
2023/12/08 05:32:48;;;;;;;21.70;14.17;;;5.30;99.90;;;;;;5016593;28;20623;-66
2023/12/08 05:35:13;;;;;;;22.30;13.97;;;5.30;99.90;;;;;;5014310;28;20674;-66
2023/12/08 05:37:39;;;;;;;23.17;14.67;;;5.40;99.90;;;;;;5016539;28;20183;-66
2023/12/08 05:40:06;;;;;;;26.20;14.57;;;5.40;99.90;;;;;;5014428;28;20173;-66
2023/12/08 05:42:32;;;;;;;22.07;14.23;;;5.40;99.90;;;;;;5020335;28;20188;-66
2023/12/08 05:44:58;;;;;;;23.83;15.10;;;5.40;99.90;;;;;;5015606;28;20756;-66
2023/12/08 05:47:24;;;;;;;23.10;15.20;;;5.40;99.90;;;;;;5022412;28;20482;-66
2023/12/08 05:49:50;;;;;;;25.33;15.60;;;5.40;99.90;;;;;;5021503;28;20323;-66
2023/12/08 05:52:16;;;;;;;24.13;14.70;;;5.40;99.90;;;;;;5018156;28;20967;-66
2023/12/08 05:54:41;;;;;;;24.43;15.43;;;5.40;99.90;;;;;;5017993;28;20208;-66
2023/12/08 05:57:07;;;;;;;24.37;14.90;;;5.40;99.90;;;;;;5021698;28;20580;-66
2023/12/08 05:59:33;;;;;;;31.13;15.10;;;5.40;99.90;;;;;;5020958;28;20215;-66
2023/12/08 06:01:59;;;;;;;26.43;15.60;;;5.40;99.90;;;;;;5018213;28;20829;-66
2023/12/08 06:04:25;;;;;;;23.97;15.97;;;5.40;99.90;;;;;;5022172;28;20584;-66
2023/12/08 06:06:50;;;;;;;23.63;15.17;;;5.40;99.90;;;;;;5015121;28;20443;-66
2023/12/08 06:09:16;;;;;;;21.67;14.00;;;5.40;99.90;;;;;;5020903;28;20180;-66
2023/12/08 06:11:41;;;;;;;22.03;13.30;;;5.40;99.90;;;;;;5017424;28;20267;-66
2023/12/08 06:14:07;;;;;;;21.37;14.20;;;5.40;99.90;;;;;;5018030;28;20659;-66
2023/12/08 06:16:33;;;;;;;23.83;15.13;;;5.40;99.90;;;;;;5016760;28;20288;-66
2023/12/08 06:18:58;;;;;;;22.50;14.03;;;5.40;99.90;;;;;;5016958;28;20173;-65
2023/12/08 06:21:24;;;;;;;22.17;14.03;;;5.40;99.90;;;;;;5018057;28;20492;-66
2023/12/08 06:23:49;;;;;;;21.30;13.50;;;5.40;99.90;;;;;;5024007;28;21051;-66
2023/12/08 06:26:15;;;;;;;24.03;14.30;;;5.50;99.90;;;;;;5019479;28;20647;-66
2023/12/08 06:28:40;;;;;;;22.40;14.57;;;5.50;99.90;;;;;;5018829;28;20758;-65
2023/12/08 06:31:09;;;;;;;21.47;14.30;;;5.50;99.90;;;;;;5012547;28;20176;-68
2023/12/08 06:33:35;;;;;;;22.50;14.80;;;5.50;99.90;;;;;;5015610;28;20212;-67
2023/12/08 06:36:01;;;;;;;23.50;15.70;;;5.50;99.90;;;;;;5014494;28;21038;-67
2023/12/08 06:38:26;;;;;;;22.50;15.37;;;5.50;99.90;;;;;;5021017;28;20247;-65
2023/12/08 06:40:53;;;;;;;26.70;14.30;;;5.50;99.90;;;;;;5018349;28;20895;-65
2023/12/08 06:43:19;;;;;;;18.70;13.43;;;5.50;99.90;;;;;;5020796;28;20260;-65
2023/12/08 06:45:45;;;;;;;19.97;13.10;;;5.60;99.90;;;;;;5016588;28;20441;-67
2023/12/08 06:48:11;;;;;;;22.97;15.33;;;5.60;99.90;;;;;;5016701;28;20792;-67
2023/12/08 06:50:36;;;;;;;21.53;14.40;;;5.60;99.90;;;;;;5020860;28;20257;-68
2023/12/08 06:53:02;;;;;;;19.70;13.30;;;5.60;99.90;;;;;;5017157;28;20735;-67
2023/12/08 06:55:27;;;;;;;20.27;13.80;;;5.60;99.90;;;;;;5015903;28;20208;-67
2023/12/08 06:57:53;;;;;;;20.87;12.83;;;5.60;99.90;;;;;;5024192;28;20192;-68
2023/12/08 07:00:19;;;;;;;20.90;13.77;;;5.50;99.90;;;;;;5022878;28;20200;-67
2023/12/08 07:02:44;;;;;;;21.50;14.13;;;5.50;99.90;;;;;;5023333;28;20210;-67
2023/12/08 07:05:11;;;;;;;21.40;14.40;;;5.60;99.90;;;;;;5017327;28;20521;-68
2023/12/08 07:07:36;;;;;;;24.93;14.47;;;5.60;99.90;;;;;;5014821;28;20207;-67
2023/12/08 07:10:02;;;;;;;24.87;14.30;;;5.60;99.90;;;;;;5017032;28;20443;-68
2023/12/08 07:12:27;;;;;;;23.77;14.57;;;5.60;99.90;;;;;;5018269;28;20193;-68
2023/12/08 07:14:53;;;;;;;27.00;15.57;;;5.70;99.90;;;;;;5013435;28;20251;-67
2023/12/08 07:17:19;;;;;;;24.70;14.10;;;5.70;99.90;;;;;;5016553;28;20868;-68
2023/12/08 07:19:44;;;;;;;23.27;14.57;;;5.70;99.90;;;;;;5014473;28;20255;-68
2023/12/08 07:22:10;;;;;;;25.90;16.10;;;5.70;99.90;;;;;;5013516;28;20238;-68
2023/12/08 07:24:39;;;;;;;25.10;15.40;;;5.70;99.90;;;;;;5012402;28;20197;-67
2023/12/08 07:27:04;;;;;;;24.67;14.43;;;5.70;99.90;;;;;;5010699;28;20189;-67
2023/12/08 07:29:30;;;;;;;23.13;15.70;;;5.70;99.90;;;;;;5016709;28;20430;-67
2023/12/08 07:31:56;;;;;;;30.20;16.93;;;5.70;99.90;;;;;;5019608;28;20259;-67
2023/12/08 07:34:22;;;;;;;28.70;15.47;;;5.70;99.90;;;;;;5013576;28;20263;-67
2023/12/08 07:36:48;;;;;;;22.80;15.80;;;5.70;99.90;;;;;;5012877;28;20197;-67
2023/12/08 07:39:14;;;;;;;26.43;15.30;;;5.60;99.90;;;;;;5010198;28;21097;-67
2023/12/08 07:41:39;;;;;;;27.63;15.23;;;5.60;99.90;;;;;;5019788;28;20484;-67
2023/12/08 07:44:05;;;;;;;20.20;13.73;;;5.70;99.90;;;;;;5019226;28;20208;-66
2023/12/08 07:46:31;;;;;;;22.63;14.67;;;5.70;99.90;;;;;;5014656;28;20197;-67
2023/12/08 07:48:57;;;;;;;23.30;15.10;;;5.80;99.90;;;;;;5015875;28;20264;-66
2023/12/08 07:51:23;;;;;;;23.57;16.53;;;5.90;99.90;;;;;;5016462;28;20415;-66
2023/12/08 07:53:49;;;;;;;26.33;15.93;;;5.80;99.90;;;;;;5014971;28;20431;-67
2023/12/08 07:56:14;;;;;;;20.73;14.60;;;5.80;99.90;;;;;;5011455;28;20223;-68
2023/12/08 07:58:40;;;;;;;28.20;16.10;;;5.90;99.90;;;;;;5020166;28;20268;-67
2023/12/08 08:01:06;;;;;;;26.00;15.60;;;5.80;99.90;;;;;;5017867;28;20185;-66
2023/12/08 08:03:31;;;;;;;21.97;14.10;;;5.80;99.90;;;;;;5016500;28;20266;-66
2023/12/08 08:05:57;;;;;;;23.63;16.70;;;5.90;99.90;;;;;;5014526;28;20208;-67
2023/12/08 08:08:23;;;;;;;23.90;15.23;;;5.90;99.90;;;;;;5017239;28;20674;-67
2023/12/08 08:10:48;;;;;;;24.70;15.30;;;5.90;99.90;;;;;;5017360;28;20419;-66
2023/12/08 08:13:14;;;;;;;26.10;15.23;;;5.90;99.90;;;;;;5014279;28;20684;-66
2023/12/08 08:15:40;;;;;;;32.90;18.47;;;5.90;99.90;;;;;;5011175;28;20690;-66
2023/12/08 08:18:06;;;;;;;24.50;15.63;;;5.90;99.90;;;;;;5012820;28;21254;-66
2023/12/08 08:20:32;;;;;;;29.17;17.57;;;5.90;99.90;;;;;;5019182;28;20212;-66
2023/12/08 08:22:57;;;;;;;30.37;15.73;;;5.90;99.90;;;;;;5016149;28;20513;-66
2023/12/08 08:25:24;;;;;;;28.30;16.47;;;5.80;99.90;;;;;;5008569;28;20200;-66
2023/12/08 08:27:53;;;;;;;28.40;16.63;;;5.80;99.90;;;;;;5010525;28;20195;-65
2023/12/08 08:30:19;;;;;;;24.00;15.37;;;5.70;99.90;;;;;;5006821;28;20447;-65
2023/12/08 08:32:44;;;;;;;24.17;15.23;;;5.70;99.90;;;;;;5012550;28;20937;-65
2023/12/08 08:35:10;;;;;;;30.23;17.93;;;5.70;99.90;;;;;;5014277;28;20466;-65
2023/12/08 08:37:35;;;;;;;22.40;15.57;;;5.70;99.90;;;;;;5014428;28;20260;-65
2023/12/08 08:40:02;;;;;;;24.80;15.10;;;5.70;99.90;;;;;;5012934;28;20224;-65
2023/12/08 08:42:27;;;;;;;21.87;15.07;;;5.70;99.90;;;;;;5015747;28;20184;-65
2023/12/08 08:44:53;;;;;;;24.33;15.77;;;5.60;99.90;;;;;;5009748;28;20454;-65
2023/12/08 08:47:19;;;;;;;24.40;17.07;;;5.60;99.90;;;;;;5015669;28;20673;-65
2023/12/08 08:49:45;;;;;;;29.87;17.00;;;5.70;99.90;;;;;;5017890;28;20764;-66
2023/12/08 08:52:10;;;;;;;28.00;15.67;;;5.60;99.90;;;;;;5018931;28;20430;-66
2023/12/08 08:54:36;;;;;;;28.60;15.20;;;5.60;99.90;;;;;;5019077;28;20215;-66
2023/12/08 08:57:01;;;;;;;25.93;16.17;;;5.50;99.90;;;;;;5021146;28;20192;-66
2023/12/08 08:59:29;;;;;;;27.90;17.50;;;5.50;99.90;;;;;;5017042;28;20563;-66
2023/12/08 09:01:54;;;;;;;29.77;17.80;;;5.60;99.90;;;;;;5016632;28;21129;-66
2023/12/08 09:04:20;;;;;;;29.37;18.47;;;5.60;99.90;;;;;;5017418;28;20215;-66
2023/12/08 09:06:45;;;;;;;29.03;18.10;;;5.60;99.90;;;;;;5010154;28;20200;-66
2023/12/08 09:09:11;;;;;;;32.10;17.57;;;5.60;99.90;;;;;;5020051;28;20237;-66
2023/12/08 09:11:37;;;;;;;24.07;16.17;;;5.70;99.90;;;;;;5015516;28;20185;-66
2023/12/08 09:14:02;;;;;;;25.80;15.60;;;5.80;99.90;;;;;;5017414;28;20224;-68
2023/12/08 09:16:28;;;;;;;26.80;16.43;;;5.80;99.90;;;;;;5009716;28;20219;-67
2023/12/08 09:18:54;;;;;;;27.10;14.60;;;5.90;99.90;;;;;;5016918;28;20189;-67
2023/12/08 09:21:19;;;;;;;21.27;13.93;;;5.90;99.90;;;;;;5011925;28;20185;-67
2023/12/08 09:23:45;;;;;;;25.87;15.57;;;6.00;99.90;;;;;;5014430;28;20635;-66
2023/12/08 09:26:11;;;;;;;21.10;14.40;;;6.00;99.90;;;;;;5019028;28;20239;-66
2023/12/08 09:28:36;;;;;;;22.53;15.23;;;6.00;99.90;;;;;;5014339;28;20935;-66
2023/12/08 09:31:02;;;;;;;25.20;16.37;;;6.10;99.90;;;;;;5015600;28;20196;-66
2023/12/08 09:33:28;;;;;;;25.13;17.03;;;6.10;99.90;;;;;;5013032;28;20208;-67
2023/12/08 09:35:55;;;;;;;19.13;12.73;;;6.20;99.90;;;;;;5021242;28;20207;-67
2023/12/08 09:38:20;;;;;;;19.10;13.10;;;6.20;99.90;;;;;;5017890;28;20996;-67
2023/12/08 09:40:46;;;;;;;19.63;12.47;;;6.10;99.90;;;;;;5018318;28;20545;-67
2023/12/08 09:43:22;;;;;;;19.20;13.60;;;6.20;99.90;;;;;;5020668;28;20212;-67
2023/12/08 09:45:49;;;;;;;26.73;15.33;;;6.20;99.90;;;;;;5016223;28;20219;-67
2023/12/08 09:48:17;;;;;;;21.10;13.47;;;6.30;99.90;;;;;;5015193;28;20769;-67
2023/12/08 09:50:43;;;;;;;20.43;13.50;;;6.40;99.90;;;;;;5018979;28;20560;-67
2023/12/08 09:53:09;;;;;;;17.27;12.50;;;6.50;99.90;;;;;;5013848;28;21356;-67
2023/12/08 09:55:37;;;;;;;16.57;12.60;;;6.60;99.90;;;;;;5021289;28;20463;-67
2023/12/08 09:58:04;;;;;;;18.77;12.83;;;6.60;99.90;;;;;;5022134;28;20218;-67
2023/12/08 10:00:33;;;;;;;17.60;12.73;;;6.60;99.90;;;;;;5024461;28;20473;-67
2023/12/08 10:03:00;;;;;;;19.30;13.37;;;6.60;99.90;;;;;;5020387;28;20454;-67
2023/12/08 10:05:27;;;;;;;16.13;12.03;;;6.60;99.90;;;;;;5020819;28;20419;-67
2023/12/08 10:07:55;;;;;;;20.30;12.67;;;6.60;99.90;;;;;;5021702;28;20458;-67
2023/12/08 10:10:21;;;;;;;18.80;14.43;;;6.60;99.90;;;;;;5017539;28;20439;-68
2023/12/08 10:12:47;;;;;;;18.73;13.10;;;6.60;99.90;;;;;;5018848;28;20462;-68
2023/12/08 10:15:16;;;;;;;20.63;13.73;;;6.60;99.90;;;;;;5016703;28;20459;-66
2023/12/08 10:17:49;;;;;;;19.80;13.37;;;6.60;99.90;;;;;;5008673;28;20590;-66
2023/12/08 10:20:15;;;;;;;18.00;12.40;;;6.60;99.90;;;;;;5014473;28;20466;-66
2023/12/08 10:22:53;;;;;;;18.57;12.50;;;6.60;99.90;;;;;;5012339;28;20522;-66
2023/12/08 10:25:20;;;;;;;20.30;13.47;;;6.60;99.90;;;;;;5011672;28;20858;-66
2023/12/08 10:27:49;;;;;;;19.90;14.03;;;6.70;99.90;;;;;;5015017;28;20432;-67
2023/12/08 10:30:15;;;;;;;17.63;13.27;;;6.70;99.90;;;;;;5015796;28;20530;-67
2023/12/08 10:32:42;;;;;;;22.00;14.63;;;6.60;99.90;;;;;;5011954;28;20525;-66
2023/12/08 10:35:10;;;;;;;21.63;14.37;;;6.60;99.90;;;;;;5017338;28;20463;-67
2023/12/08 10:37:36;;;;;;;24.20;14.73;;;6.70;99.90;;;;;;5017470;28;20931;-67
2023/12/08 10:40:02;;;;;;;22.70;14.63;;;6.80;99.90;;;;;;5019447;28;20423;-67
2023/12/08 10:42:27;;;;;;;25.53;15.87;;;6.90;99.90;;;;;;5018771;28;20419;-65
2023/12/08 10:44:53;;;;;;;20.97;15.30;;;6.90;99.90;;;;;;5016311;28;20528;-66
2023/12/08 10:47:20;;;;;;;22.40;15.20;;;7.00;99.90;;;;;;5017243;28;20576;-65
2023/12/08 10:49:48;;;;;;;20.20;14.07;;;7.10;99.90;;;;;;5000374;28;20415;-66
2023/12/08 10:52:15;;;;;;;22.10;15.67;;;7.00;99.90;;;;;;5011264;28;20428;-66
2023/12/08 10:54:41;;;;;;;20.87;14.50;;;6.90;99.90;;;;;;5015206;28;20858;-66
2023/12/08 10:57:07;;;;;;;20.07;15.47;;;6.90;99.90;;;;;;5010344;28;20427;-66
2023/12/08 10:59:37;;;;;;;21.60;14.40;;;6.90;99.90;;;;;;5015545;28;20439;-66
2023/12/08 11:02:08;;;;;;;20.20;13.70;;;7.10;99.90;;;;;;5013772;28;20418;-65
2023/12/08 11:04:38;;;;;;;22.27;14.67;;;7.00;99.90;;;;;;5014156;28;20824;-66
2023/12/08 11:07:17;;;;;;;23.23;15.13;;;7.10;99.90;;;;;;5011103;28;20452;-66
2023/12/08 11:09:42;;;;;;;21.20;15.60;;;7.00;99.90;;;;;;5015149;28;20504;-65
2023/12/08 11:12:13;;;;;;;20.60;14.07;;;6.90;99.90;;;;;;5017311;28;21079;-65
2023/12/08 11:14:41;;;;;;;18.50;13.00;;;6.90;99.90;;;;;;5014649;28;20365;-69
2023/12/08 11:17:20;;;;;;;19.60;13.20;;;7.10;99.90;;;;;;5015425;28;20404;-67
2023/12/08 11:19:46;;;;;;;20.13;13.30;;;7.20;99.90;;;;;;5016217;28;20446;-66
2023/12/08 11:22:13;;;;;;;20.77;13.30;;;7.20;99.90;;;;;;5015291;28;20958;-67
2023/12/08 11:24:41;;;;;;;21.70;14.73;;;7.30;99.90;;;;;;5011362;28;20549;-66
2023/12/08 11:27:50;;;;;;;21.63;14.10;;;7.40;99.90;;;;;;5012358;28;20451;-66
2023/12/08 11:30:24;;;;;;;19.70;14.03;;;7.40;99.90;;;;;;5010861;28;20436;-66
2023/12/08 11:32:57;;;;;;;24.43;14.30;;;7.30;99.90;;;;;;5014451;28;20807;-66
2023/12/08 11:35:22;;;;;;;17.57;13.00;;;7.40;99.90;;;;;;5015901;28;20451;-66
2023/12/08 11:37:48;;;;;;;21.07;14.80;;;7.40;99.90;;;;;;5014096;28;20880;-66
2023/12/08 11:40:13;;;;;;;20.90;14.27;;;7.40;99.90;;;;;;5018942;28;20260;-65
2023/12/08 11:42:44;;;;;;;24.03;14.83;;;7.30;99.90;;;;;;5018255;28;20185;-66
2023/12/08 11:45:13;;;;;;;20.67;13.80;;;7.30;99.90;;;;;;5014840;28;20192;-65
2023/12/08 11:47:41;;;;;;;22.40;15.20;;;7.30;99.90;;;;;;5010667;28;20795;-66
2023/12/08 11:50:08;;;;;;;18.53;13.80;;;7.20;99.90;;;;;;5020692;28;20419;-67
2023/12/08 11:52:35;;;;;;;24.10;14.77;;;7.30;99.90;;;;;;5017623;28;20443;-66
2023/12/08 11:55:27;;;;;;;19.43;13.83;;;7.40;99.90;;;;;;5018599;28;20789;-66
2023/12/08 11:58:01;;;;;;;21.70;14.80;;;7.40;99.90;;;;;;5011513;28;20431;-66
2023/12/08 12:00:29;;;;;;;22.70;15.40;;;7.30;99.90;;;;;;5018470;28;20507;-67
2023/12/08 12:02:56;;;;;;;21.00;15.40;;;7.30;99.90;;;;;;5016113;28;20896;-66
2023/12/08 12:05:22;;;;;;;19.47;14.40;;;7.20;99.90;;;;;;5014382;28;20447;-68
2023/12/08 12:07:50;;;;;;;22.33;14.90;;;7.20;99.90;;;;;;5014849;28;20484;-67
2023/12/08 12:10:18;;;;;;;21.57;14.50;;;7.20;99.90;;;;;;5013761;28;20443;-65
2023/12/08 12:13:03;;;;;;;25.60;16.40;;;7.30;99.90;;;;;;5018820;28;20458;-66
2023/12/08 12:15:33;;;;;;;21.87;15.00;;;7.30;99.90;;;;;;5024227;28;20512;-67
2023/12/08 12:17:59;;;;;;;22.17;15.20;;;7.40;99.90;;;;;;5022623;28;20418;-66
2023/12/08 12:20:28;;;;;;;22.77;16.83;;;7.40;99.90;;;;;;5023829;28;20435;-67
2023/12/08 12:22:53;;;;;;;20.43;15.70;;;7.40;99.90;;;;;;5019456;28;20458;-67
2023/12/08 12:25:19;;;;;;;23.53;15.70;;;7.40;99.90;;;;;;5017672;28;20453;-66
2023/12/08 12:27:46;;;;;;;23.50;16.23;;;7.50;99.90;;;;;;5009503;28;20544;-67
2023/12/08 12:30:13;;;;;;;24.20;17.20;;;7.50;99.90;;;;;;5018005;28;20177;-67
2023/12/08 12:32:39;;;;;;;21.67;16.30;;;7.50;99.90;;;;;;5013386;28;20426;-67